Time;durP1;ratioP1;P1;durP2;ratioP2;P2;SDS_P1;SDS_P2;PMS_P1;PMS_P2;Temp;Humidity;BMP_temperature;BMP_pressure;BME280_temperature;BME280_humidity;BME280_pressure;Samples;Min_cycle;Max_cycle;Signal;HPM_P1;HPM_P2
2022/08/11 00:01:53;;;;;;;8.63;5.00;;;15.50;95.40;;;;;;5089487;28;20036;-63
2022/08/11 00:04:22;;;;;;;10.10;5.35;;;15.40;95.80;;;;;;5082107;28;20049;-62
2022/08/11 00:06:48;;;;;;;6.90;5.05;;;15.50;95.80;;;;;;5079325;28;20032;-63
2022/08/11 00:09:17;;;;;;;8.35;5.10;;;15.40;95.90;;;;;;5080164;28;20016;-62
2022/08/11 00:11:51;;;;;;;10.70;5.35;;;15.30;96.60;;;;;;5080276;28;20075;-63
2022/08/11 00:14:26;;;;;;;7.28;4.97;;;15.20;97.00;;;;;;5082977;28;20465;-65
2022/08/11 00:16:59;;;;;;;9.10;5.03;;;15.20;97.70;;;;;;5079854;28;20086;-62
2022/08/11 00:19:40;;;;;;;8.50;4.93;;;15.20;97.60;;;;;;5081281;28;20048;-62
2022/08/11 00:22:07;;;;;;;9.18;4.90;;;15.20;98.20;;;;;;5081870;28;20039;-62
2022/08/11 00:24:40;;;;;;;7.65;5.15;;;15.20;98.20;;;;;;5076914;28;20044;-63
2022/08/11 00:27:06;;;;;;;7.05;5.22;;;15.30;98.10;;;;;;5081618;28;20040;-62
2022/08/11 00:29:33;;;;;;;8.30;5.35;;;15.30;97.90;;;;;;5088999;28;20056;-62
2022/08/11 00:32:03;;;;;;;7.18;5.13;;;15.30;98.60;;;;;;5080875;28;20036;-62
2022/08/11 00:34:32;;;;;;;;;;;15.10;99.20;;;;;;5080938;28;20028;-62
2022/08/11 00:37:09;;;;;;;7.28;4.97;;;15.00;99.70;;;;;;5079102;28;20225;-62
2022/08/11 00:39:45;;;;;;;10.25;5.47;;;15.10;99.50;;;;;;5090577;28;20131;-65
2022/08/11 00:42:13;;;;;;;8.82;5.10;;;15.00;99.90;;;;;;5089953;28;20501;-64
2022/08/11 00:44:59;;;;;;;7.15;5.18;;;15.00;99.90;;;;;;5078885;28;20107;-65
2022/08/11 00:47:30;;;;;;;7.68;5.65;;;15.00;99.90;;;;;;5089707;28;20063;-62
2022/08/11 00:49:59;;;;;;;13.57;6.00;;;15.00;99.90;;;;;;5086850;28;20039;-63
2022/08/11 00:52:43;;;;;;;8.60;5.15;;;14.90;99.90;;;;;;5086206;28;20389;-61
2022/08/11 00:55:32;;;;;;;6.90;5.03;;;14.70;99.90;;;;;;5089224;28;20485;-62
2022/08/11 00:58:17;;;;;;;7.00;5.00;;;14.60;99.90;;;;;;5087370;28;20482;-62
2022/08/11 01:01:04;;;;;;;8.55;5.63;;;14.60;99.90;;;;;;5073906;28;20114;-62
2022/08/11 01:04:05;;;;;;;8.10;5.10;;;14.60;99.90;;;;;;5085596;28;20043;-62
2022/08/11 01:06:49;;;;;;;;;;;14.50;99.90;;;;;;5058875;28;20074;-63
2022/08/11 01:09:31;;;;;;;8.15;5.45;;;14.30;99.90;;;;;;5071028;28;20029;-62
2022/08/11 01:12:35;;;;;;;8.65;5.88;;;14.30;99.90;;;;;;5077975;28;20028;-62
2022/08/11 01:15:12;;;;;;;7.43;5.40;;;14.20;99.90;;;;;;5088894;28;20023;-62
2022/08/11 01:17:56;;;;;;;8.57;5.68;;;14.10;99.90;;;;;;5083027;28;20124;-64
2022/08/11 01:20:46;;;;;;;10.75;5.55;;;14.10;99.90;;;;;;5090787;28;20031;-62
2022/08/11 01:23:33;;;;;;;11.27;6.05;;;14.10;99.90;;;;;;5087961;28;20502;-62
2022/08/11 01:26:01;;;;;;;8.00;5.20;;;13.80;99.90;;;;;;5079787;28;20029;-62
2022/08/11 01:28:29;;;;;;;9.48;6.15;;;13.70;99.90;;;;;;5076493;28;20103;-62
2022/08/11 01:31:33;;;;;;;9.32;5.78;;;13.80;99.90;;;;;;5084654;28;20024;-62
2022/08/11 01:34:19;;;;;;;8.48;5.22;;;13.90;99.90;;;;;;5082105;28;20150;-62
2022/08/11 01:37:18;;;;;;;10.88;5.60;;;14.00;99.90;;;;;;5072174;28;20040;-63
2022/08/11 01:40:16;;;;;;;8.05;5.60;;;14.10;99.90;;;;;;5069086;28;20037;-63
2022/08/11 01:46:00;;;;;;;7.18;5.40;;;14.10;99.90;;;;;;5086531;28;20040;-65
2022/08/11 01:49:16;;;;;;;9.93;5.30;;;14.10;99.90;;;;;;5087284;28;20082;-62
2022/08/11 01:51:45;;;;;;;8.30;5.80;;;14.00;99.90;;;;;;5098413;27;20044;-65
2022/08/11 01:54:30;;;;;;;8.18;5.30;;;14.00;99.90;;;;;;5089443;28;20028;-63
2022/08/11 01:57:12;;;;;;;12.27;5.80;;;13.90;99.90;;;;;;5086601;28;20748;-62
2022/08/11 01:59:48;;;;;;;8.75;5.82;;;13.90;99.90;;;;;;5072567;28;20036;-62
2022/08/11 02:02:44;;;;;;;8.85;5.70;;;13.90;99.90;;;;;;5087262;28;20123;-63
2022/08/11 02:05:28;;;;;;;9.93;5.88;;;14.00;99.90;;;;;;5089362;28;20044;-63
2022/08/11 02:08:07;;;;;;;7.72;5.13;;;13.90;99.90;;;;;;5079709;28;20412;-61
2022/08/11 02:14:21;;;;;;;9.70;6.32;;;13.80;99.90;;;;;;5055005;28;20052;-63
2022/08/11 02:17:16;;;;;;;8.82;5.78;;;13.80;99.90;;;;;;5087442;28;21312;-62
2022/08/11 02:26:18;;;;;;;9.38;5.30;;;13.90;99.90;;;;;;5087359;28;20490;-63
2022/08/11 02:29:16;;;;;;;7.75;5.90;;;13.70;99.90;;;;;;5083986;28;20032;-65
2022/08/11 02:35:25;;;;;;;7.90;5.63;;;13.70;99.90;;;;;;5059228;28;20447;-63
2022/08/11 02:38:16;;;;;;;9.07;5.97;;;13.60;99.90;;;;;;5085279;28;20038;-62
2022/08/11 02:42:21;;;;;;;13.13;6.35;;;13.60;99.90;;;;;;5081885;28;20032;-62
2022/08/11 02:44:36;;;;;;;9.88;6.00;;;13.40;99.90;;;;;;5084175;28;20036;-62
2022/08/11 02:47:31;;;;;;;8.80;6.30;;;13.40;99.90;;;;;;5059028;28;20498;-63
2022/08/11 02:50:31;;;;;;;9.40;5.75;;;13.50;99.90;;;;;;5083296;28;20039;-62
2022/08/11 02:53:16;;;;;;;10.80;6.50;;;13.60;99.90;;;;;;5028702;28;20046;-62
2022/08/11 02:56:09;;;;;;;10.98;6.35;;;13.60;99.90;;;;;;5087794;28;20047;-62
2022/08/11 02:58:43;;;;;;;11.88;7.00;;;13.60;99.90;;;;;;5087273;28;20132;-62
2022/08/11 03:01:12;;;;;;;12.80;6.45;;;13.40;99.90;;;;;;5082515;28;20057;-63
2022/08/11 03:04:04;;;;;;;9.57;6.20;;;13.30;99.90;;;;;;5085859;28;20462;-62
2022/08/11 03:06:52;;;;;;;13.50;6.68;;;13.30;99.90;;;;;;5073656;28;20406;-62
2022/08/11 03:09:36;;;;;;;11.23;6.57;;;13.30;99.90;;;;;;5075321;28;20024;-62
2022/08/11 03:18:25;;;;;;;10.13;6.57;;;13.50;99.90;;;;;;5072284;28;20066;-62
2022/08/11 03:21:02;;;;;;;15.55;6.78;;;13.50;99.90;;;;;;5080767;28;20041;-63
2022/08/11 03:23:33;;;;;;;10.20;6.00;;;13.50;99.90;;;;;;5092812;28;20031;-65
2022/08/11 03:26:23;;;;;;;9.52;6.78;;;13.50;99.90;;;;;;5091765;28;20034;-65
2022/08/11 03:29:19;;;;;;;10.20;6.50;;;13.30;99.90;;;;;;5078097;28;20093;-65
2022/08/11 03:32:06;;;;;;;12.23;6.80;;;13.30;99.90;;;;;;5078006;28;20034;-62
2022/08/11 03:34:36;;;;;;;10.27;6.28;;;13.20;99.90;;;;;;5077085;28;21051;-64
2022/08/11 03:37:50;;;;;;;9.73;5.97;;;13.20;99.90;;;;;;5075700;28;20035;-63
2022/08/11 03:43:53;;;;;;;13.57;6.28;;;13.20;99.90;;;;;;5071805;28;20402;-63
2022/08/11 03:46:51;;;;;;;8.32;5.78;;;13.20;99.90;;;;;;5075804;28;20028;-63
2022/08/11 03:49:22;;;;;;;8.77;5.97;;;13.20;99.90;;;;;;5067343;28;20045;-63
2022/08/11 03:52:03;;;;;;;10.60;6.15;;;13.20;99.90;;;;;;5090194;28;20040;-65
2022/08/11 03:54:55;;;;;;;12.27;6.93;;;13.20;99.90;;;;;;5086170;28;20037;-65
2022/08/11 03:57:58;;;;;;;14.68;6.70;;;13.10;99.90;;;;;;5072687;28;20031;-63
2022/08/11 04:00:45;;;;;;;8.27;5.45;;;13.10;99.90;;;;;;5070954;28;20024;-61
2022/08/11 04:03:48;;;;;;;11.05;6.65;;;13.00;99.90;;;;;;5088230;28;20112;-62
2022/08/11 04:06:40;;;;;;;10.20;6.32;;;12.90;99.90;;;;;;5094286;28;20031;-62
2022/08/11 04:09:34;;;;;;;10.85;6.60;;;12.90;99.90;;;;;;5106073;28;20020;-62
2022/08/11 04:12:32;;;;;;;10.10;6.57;;;12.80;99.90;;;;;;5091090;28;20085;-62
2022/08/11 04:18:32;;;;;;;13.02;7.28;;;12.70;99.90;;;;;;5086666;28;20075;-62
2022/08/11 04:21:16;;;;;;;12.07;6.90;;;12.70;99.90;;;;;;5089841;28;20111;-62
2022/08/11 04:24:02;;;;;;;10.77;7.03;;;12.70;99.90;;;;;;5080933;28;20063;-62
2022/08/11 04:27:23;;;;;;;8.90;6.80;;;12.70;99.90;;;;;;5089955;28;20040;-62
2022/08/11 04:30:07;;;;;;;10.23;7.00;;;12.80;99.90;;;;;;5075289;28;20081;-63
2022/08/11 04:32:55;;;;;;;12.13;7.10;;;12.80;99.90;;;;;;5079358;28;20085;-62
2022/08/11 04:35:57;;;;;;;10.98;6.60;;;12.90;99.90;;;;;;5082251;28;20119;-61
2022/08/11 04:38:42;;;;;;;12.32;6.97;;;13.00;99.90;;;;;;5082287;28;20040;-60
2022/08/11 04:41:32;;;;;;;9.85;6.90;;;13.10;99.90;;;;;;5068130;28;20035;-61
2022/08/11 04:44:24;;;;;;;9.13;6.53;;;13.00;99.90;;;;;;5076759;28;20044;-61
2022/08/11 05:03:02;;;;;;;14.85;7.63;;;13.40;99.90;;;;;;5085979;28;20398;-62
2022/08/11 05:05:55;;;;;;;9.85;6.97;;;13.50;99.90;;;;;;5089015;28;20032;-61
2022/08/11 05:08:58;;;;;;;11.77;6.82;;;13.70;99.90;;;;;;5088585;28;20024;-62
2022/08/11 05:11:48;;;;;;;9.65;6.78;;;13.80;99.90;;;;;;5088241;28;20097;-61
2022/08/11 05:34:52;;;;;;;16.27;7.40;;;14.50;99.90;;;;;;5089565;28;20046;-61
2022/08/11 05:37:33;;;;;;;11.50;7.38;;;14.30;99.90;;;;;;5087494;28;20474;-62
2022/08/11 05:57:01;;;;;;;9.00;7.15;;;15.40;99.90;;;;;;5090309;28;20077;-62
2022/08/11 05:59:30;;;;;;;12.73;7.55;;;15.60;99.90;;;;;;5078859;28;20073;-61
2022/08/11 06:02:14;;;;;;;12.65;8.13;;;15.90;99.90;;;;;;5068661;28;20080;-62
2022/08/11 06:04:40;;;;;;;16.33;9.52;;;16.10;99.90;;;;;;5088722;28;20032;-61
2022/08/11 06:07:09;;;;;;;16.50;9.70;;;16.20;99.90;;;;;;5089899;28;20031;-61
2022/08/11 06:09:43;;;;;;;22.15;9.80;;;16.30;99.90;;;;;;5089737;28;20024;-61
2022/08/11 06:12:16;;;;;;;18.58;10.02;;;16.30;99.90;;;;;;5087750;28;20036;-60
2022/08/11 06:14:44;;;;;;;14.75;9.23;;;16.40;99.90;;;;;;5076762;28;20561;-61
2022/08/11 06:17:12;;;;;;;17.73;8.70;;;16.60;99.90;;;;;;5085869;28;20088;-61
2022/08/11 06:19:41;;;;;;;11.10;7.88;;;16.90;99.90;;;;;;5086380;28;20082;-62
2022/08/11 06:22:11;;;;;;;13.52;6.93;;;17.10;99.90;;;;;;5087962;28;20111;-61
2022/08/11 06:24:39;;;;;;;14.30;7.15;;;17.30;99.90;;;;;;5088284;28;20047;-62
2022/08/11 06:27:06;;;;;;;11.50;6.40;;;17.50;99.90;;;;;;5083558;28;20024;-62
2022/08/11 06:29:40;;;;;;;10.60;6.03;;;17.80;99.90;;;;;;5085804;28;20032;-62
2022/08/11 06:32:11;;;;;;;7.60;6.10;;;18.00;99.90;;;;;;5082370;28;20459;-62
2022/08/11 06:34:58;;;;;;;17.10;5.72;;;18.20;99.90;;;;;;5088369;28;20510;-61
2022/08/11 06:37:48;;;;;;;10.48;5.32;;;18.60;99.90;;;;;;5084063;28;20024;-62
2022/08/11 06:40:28;;;;;;;7.20;4.78;;;19.00;99.90;;;;;;5073165;28;20055;-62
2022/08/11 06:43:05;;;;;;;7.28;4.90;;;19.30;98.10;;;;;;5084484;28;20432;-61
2022/08/11 06:45:41;;;;;;;8.48;5.72;;;19.50;97.30;;;;;;5075123;28;20037;-63
2022/08/11 06:48:16;;;;;;;10.15;5.60;;;19.60;96.40;;;;;;5067526;28;20033;-62
2022/08/11 06:53:49;;;;;;;20.38;5.88;;;19.90;95.50;;;;;;5068141;28;20415;-61
2022/08/11 07:02:01;;;;;;;11.50;5.72;;;20.60;93.40;;;;;;5092041;28;20405;-62
2022/08/11 07:04:38;;;;;;;11.60;6.13;;;20.70;93.50;;;;;;5087605;28;20492;-62
2022/08/11 07:16:00;;;;;;;8.35;5.10;;;21.00;91.80;;;;;;5079894;28;19919;-63
2022/08/11 07:30:05;;;;;;;14.75;5.15;;;21.70;87.20;;;;;;5075448;28;20055;-61
2022/08/11 07:32:38;;;;;;;13.88;4.80;;;21.70;86.40;;;;;;5072034;28;20101;-61
2022/08/11 07:35:14;;;;;;;13.77;5.10;;;21.80;86.80;;;;;;5076018;28;20069;-61
2022/08/11 07:37:44;;;;;;;10.52;4.63;;;21.90;85.60;;;;;;5089445;28;20065;-60
2022/08/11 07:40:10;;;;;;;7.60;4.82;;;22.00;84.60;;;;;;5074519;28;20035;-60
2022/08/11 07:42:37;;;;;;;6.43;4.75;;;22.20;83.80;;;;;;5088173;28;20032;-61
2022/08/11 07:53:29;;;;;;;7.18;4.60;;;22.40;79.70;;;;;;5083536;28;20047;-60
2022/08/11 07:55:58;;;;;;;9.73;4.90;;;22.40;79.10;;;;;;5082806;28;20121;-61
2022/08/11 08:17:57;;;;;;;5.18;4.05;;;23.20;73.00;;;;;;5072683;28;20059;-62
2022/08/11 08:20:33;;;;;;;8.43;3.95;;;23.20;71.30;;;;;;5090118;28;20031;-61
2022/08/11 08:23:01;;;;;;;7.13;4.35;;;23.30;71.90;;;;;;5085292;28;20020;-60
2022/08/11 08:25:35;;;;;;;7.07;4.38;;;23.50;71.60;;;;;;5070677;28;20027;-60
2022/08/11 08:28:09;;;;;;;7.05;4.07;;;23.50;69.20;;;;;;5089100;28;20036;-60
2022/08/11 08:30:49;;;;;;;12.60;4.00;;;23.70;70.50;;;;;;5082716;28;20085;-62
2022/08/11 08:33:24;;;;;;;4.82;3.90;;;23.80;69.70;;;;;;5083381;28;20114;-61
2022/08/11 08:36:14;;;;;;;11.77;4.07;;;23.90;66.80;;;;;;5080939;28;20112;-60
2022/08/11 08:38:47;;;;;;;9.18;3.92;;;23.80;65.60;;;;;;5081110;28;20032;-61
2022/08/11 08:41:19;;;;;;;5.85;3.70;;;23.90;64.50;;;;;;5089074;28;20209;-61
2022/08/11 08:43:49;;;;;;;6.35;3.72;;;23.80;64.90;;;;;;5089687;28;20047;-61
2022/08/11 08:46:21;;;;;;;8.20;4.20;;;24.10;64.90;;;;;;5079369;28;20030;-60
2022/08/11 08:48:47;;;;;;;12.25;4.30;;;24.20;63.40;;;;;;5092122;28;20114;-60
2022/08/11 08:54:04;;;;;;;13.23;4.05;;;24.20;62.30;;;;;;5080813;28;20134;-61
2022/08/11 08:56:33;;;;;;;8.77;3.75;;;24.20;63.40;;;;;;5093809;28;20031;-63
2022/08/11 08:59:01;;;;;;;11.85;3.65;;;24.30;61.90;;;;;;5089928;28;20038;-62
2022/08/11 09:01:44;;;;;;;5.63;3.88;;;24.40;61.70;;;;;;5090338;28;20074;-62
2022/08/11 09:04:12;;;;;;;6.70;4.05;;;24.50;60.80;;;;;;5083362;28;20057;-62
2022/08/11 09:06:39;;;;;;;6.05;4.05;;;24.70;60.30;;;;;;5089847;28;20028;-62
2022/08/11 09:09:10;;;;;;;7.47;3.28;;;24.80;59.50;;;;;;5086572;28;20024;-63
2022/08/11 09:11:54;;;;;;;7.78;3.60;;;24.80;58.30;;;;;;5088564;28;20397;-65
2022/08/11 09:14:21;;;;;;;8.43;3.53;;;24.90;58.60;;;;;;5087764;28;20111;-62
2022/08/11 09:16:48;;;;;;;8.60;3.60;;;24.90;57.40;;;;;;5086592;28;20025;-60
2022/08/11 09:19:16;;;;;;;5.57;3.95;;;25.00;57.70;;;;;;5085172;28;20524;-61
2022/08/11 09:27:22;;;;;;;6.53;3.38;;;25.20;56.00;;;;;;5086194;28;20548;-61
2022/08/11 09:29:49;;;;;;;5.70;3.75;;;25.40;55.60;;;;;;5079323;28;20055;-62
2022/08/11 09:32:19;;;;;;;7.85;3.70;;;25.40;55.80;;;;;;5100351;28;20386;-61
2022/08/11 09:34:46;;;;;;;9.50;3.50;;;25.50;54.80;;;;;;5089683;28;20052;-61
2022/08/11 09:45:27;;;;;;;4.03;3.15;;;25.90;54.00;;;;;;5078272;28;20040;-63
2022/08/11 09:47:54;;;;;;;6.38;3.60;;;26.00;52.60;;;;;;5083282;28;20036;-61
2022/08/11 09:50:20;;;;;;;5.05;3.60;;;26.20;53.50;;;;;;5086042;28;20093;-62
2022/08/11 09:52:49;;;;;;;5.07;3.30;;;26.20;53.20;;;;;;5073363;28;20025;-63
2022/08/11 09:55:16;;;;;;;5.22;2.85;;;26.10;52.20;;;;;;5076272;28;20032;-62
2022/08/11 10:00:39;;;;;;;5.05;3.30;;;26.10;51.90;;;;;;5075482;28;20086;-61
2022/08/11 10:03:20;;;;;;;7.22;3.13;;;26.10;51.20;;;;;;5083569;28;20062;-63
2022/08/11 10:08:44;;;;;;;8.43;3.08;;;26.30;50.80;;;;;;5079218;28;20039;-63
2022/08/11 10:11:17;;;;;;;5.25;3.03;;;26.70;51.20;;;;;;5086193;28;20099;-65
2022/08/11 10:16:35;;;;;;;4.38;3.08;;;26.80;49.70;;;;;;5089581;28;20043;-64
2022/08/11 10:19:03;;;;;;;5.13;3.13;;;26.80;49.50;;;;;;5082519;28;20048;-63
2022/08/11 10:26:48;;;;;;;9.35;3.20;;;26.80;48.60;;;;;;5067853;28;20581;-63
2022/08/11 10:27:16;;;;;;;5.40;3.15;;;26.70;48.20;;;;;;5083599;28;20489;-63
2022/08/11 10:35:19;;;;;;;4.63;2.90;;;26.80;48.00;;;;;;5102631;28;20078;-63
2022/08/11 10:37:46;;;;;;;4.60;2.80;;;26.90;47.70;;;;;;5107620;28;20028;-61
2022/08/11 10:40:18;;;;;;;6.35;2.80;;;27.00;47.80;;;;;;5085854;28;20106;-65
2022/08/11 10:43:02;;;;;;;7.10;2.70;;;27.20;47.00;;;;;;5082509;28;20093;-64
2022/08/11 10:48:20;;;;;;;;;;;27.60;45.80;;;;;;5078156;28;20031;-62
2022/08/11 10:59:08;;;;;;;3.35;2.75;;;27.50;46.00;;;;;;5086154;28;20105;-62
2022/08/11 11:01:38;;;;;;;4.15;2.80;;;27.70;46.00;;;;;;5075145;28;20032;-65
2022/08/11 11:04:13;;;;;;;9.73;2.85;;;27.80;45.70;;;;;;5085662;28;20082;-63
2022/08/11 11:06:53;;;;;;;4.25;2.80;;;27.90;44.40;;;;;;5086545;28;20500;-62
2022/08/11 11:09:37;;;;;;;3.53;2.45;;;27.80;44.30;;;;;;5083223;28;20028;-63
2022/08/11 11:17:55;;;;;;;5.40;2.20;;;28.30;44.00;;;;;;5078040;28;20123;-63
2022/08/11 11:20:25;;;;;;;7.53;2.83;;;28.30;42.90;;;;;;5079003;28;20068;-61
2022/08/11 11:22:53;;;;;;;;;;;28.20;43.10;;;;;;5089184;28;20024;-61
2022/08/11 11:25:20;;;;;;;7.80;2.60;;;28.10;43.80;;;;;;5082458;28;19958;-62
2022/08/11 11:28:03;;;;;;;5.32;2.95;;;28.30;44.70;;;;;;5086164;28;20032;-62
2022/08/11 11:30:47;;;;;;;4.43;2.65;;;28.50;42.30;;;;;;5085049;28;20421;-63
2022/08/11 11:33:23;;;;;;;6.88;2.60;;;28.40;43.10;;;;;;5086099;28;20024;-65
2022/08/11 11:36:39;;;;;;;6.20;2.65;;;28.70;43.40;;;;;;5088407;28;20039;-62
2022/08/11 11:39:06;;;;;;;3.25;2.83;;;28.60;42.40;;;;;;5061572;28;20190;-62
2022/08/11 11:41:32;;;;;;;3.70;2.65;;;28.80;41.90;;;;;;5087315;28;20051;-63
2022/08/11 11:43:58;;;;;;;10.00;2.65;;;28.70;42.20;;;;;;5088270;28;20063;-61
2022/08/11 11:46:27;;;;;;;6.35;2.55;;;28.60;41.30;;;;;;5083544;28;20489;-62
2022/08/11 11:48:54;;;;;;;3.75;2.72;;;28.60;42.40;;;;;;5088559;28;20474;-61
2022/08/11 11:51:22;;;;;;;4.63;2.30;;;28.80;42.40;;;;;;5084793;28;20032;-62
2022/08/11 11:53:48;;;;;;;3.92;2.75;;;29.30;41.60;;;;;;5087805;28;20028;-62
2022/08/11 11:56:15;;;;;;;5.40;2.65;;;29.50;39.80;;;;;;5086740;28;20553;-64
2022/08/11 12:01:27;;;;;;;9.70;2.50;;;28.90;40.30;;;;;;5087892;28;20054;-63
2022/08/11 12:03:54;;;;;;;11.73;2.60;;;28.60;40.80;;;;;;5092524;28;20063;-65
2022/08/11 12:06:24;;;;;;;3.55;2.55;;;28.60;41.50;;;;;;5087022;28;20028;-63
2022/08/11 12:08:52;;;;;;;;;;;28.80;41.90;;;;;;5078217;28;20035;-62
2022/08/11 12:14:07;;;;;;;6.40;2.42;;;28.70;40.80;;;;;;5090303;28;20039;-63
2022/08/11 12:16:35;;;;;;;4.88;2.50;;;29.10;40.80;;;;;;5087935;28;20494;-63
2022/08/11 12:19:04;;;;;;;4.68;2.83;;;29.50;40.20;;;;;;5080489;28;20135;-64
2022/08/11 12:21:35;;;;;;;3.97;2.53;;;29.00;39.30;;;;;;5080276;28;20037;-62
2022/08/11 12:29:16;;;;;;;6.93;2.80;;;29.20;39.20;;;;;;5093089;28;20089;-64
2022/08/11 12:31:42;;;;;;;10.68;2.67;;;28.90;39.60;;;;;;5092599;28;20032;-63
2022/08/11 12:34:14;;;;;;;4.25;2.70;;;29.00;39.40;;;;;;5086444;28;20033;-63
2022/08/11 12:36:41;;;;;;;5.45;2.65;;;28.90;38.80;;;;;;5087981;28;20048;-63
2022/08/11 12:39:09;;;;;;;4.00;2.60;;;29.20;39.40;;;;;;5086151;28;20085;-63
2022/08/11 12:47:11;;;;;;;6.22;2.50;;;29.10;39.50;;;;;;5095596;28;20042;-62
2022/08/11 12:52:42;;;;;;;10.65;2.80;;;28.90;38.90;;;;;;5083755;28;20096;-61
2022/08/11 12:58:14;;;;;;;4.63;2.70;;;29.20;41.10;;;;;;5092374;28;20040;-63
2022/08/11 12:58:16;;;;;;;5.97;2.75;;;29.70;39.50;;;;;;5090464;28;20128;-64
2022/08/11 13:06:15;;;;;;;4.45;2.55;;;29.60;37.60;;;;;;5083517;28;20027;-62
2022/08/11 13:08:42;;;;;;;8.57;2.45;;;29.40;37.50;;;;;;5089730;28;20097;-62
2022/08/11 13:13:55;;;;;;;9.20;2.90;;;29.30;37.80;;;;;;5087255;28;20154;-61
2022/08/11 13:16:28;;;;;;;9.40;2.45;;;29.10;37.30;;;;;;5085786;28;20102;-65
2022/08/11 13:18:57;;;;;;;6.00;2.55;;;29.50;36.90;;;;;;5081655;28;20055;-63
2022/08/11 13:21:23;;;;;;;7.90;2.83;;;29.90;38.00;;;;;;5081786;28;20031;-63
2022/08/11 13:23:53;;;;;;;7.68;2.47;;;29.90;36.40;;;;;;5088110;28;20046;-63
2022/08/11 13:26:18;;;;;;;7.25;2.75;;;29.50;36.80;;;;;;5075916;28;20466;-66
2022/08/11 13:28:44;;;;;;;4.50;2.58;;;29.60;38.30;;;;;;5089110;28;20061;-64
2022/08/11 13:31:10;;;;;;;4.57;2.50;;;30.00;37.90;;;;;;5093148;28;20377;-62
2022/08/11 13:33:48;;;;;;;4.47;2.85;;;30.00;37.30;;;;;;5099830;28;20028;-62
2022/08/11 13:36:19;;;;;;;3.13;2.53;;;29.70;37.80;;;;;;5090231;28;20035;-62
2022/08/11 13:38:45;;;;;;;3.42;2.75;;;29.60;39.10;;;;;;5083863;28;20032;-61
2022/08/11 13:43:56;;;;;;;4.10;3.00;;;29.90;38.10;;;;;;5090494;28;20042;-62
2022/08/11 13:46:23;;;;;;;7.32;3.65;;;29.90;38.70;;;;;;5083568;28;20389;-65
2022/08/11 13:48:51;;;;;;;5.10;2.65;;;29.70;37.30;;;;;;5085645;28;20035;-62
2022/08/11 13:51:31;;;;;;;5.10;3.05;;;29.60;38.70;;;;;;5099206;28;20390;-66
2022/08/11 13:54:02;;;;;;;5.75;2.75;;;29.80;39.80;;;;;;5077519;28;20043;-62
2022/08/11 13:56:29;;;;;;;3.47;2.83;;;30.00;39.10;;;;;;5078367;28;20150;-62
2022/08/11 13:58:57;;;;;;;10.50;3.00;;;30.30;38.40;;;;;;5077334;28;20455;-63
2022/08/11 14:01:29;;;;;;;6.60;2.80;;;30.00;37.70;;;;;;5090147;28;20027;-64
2022/08/11 14:03:58;;;;;;;11.38;2.88;;;29.70;38.20;;;;;;5086037;28;20035;-65
2022/08/11 14:06:24;;;;;;;5.00;2.77;;;29.50;37.90;;;;;;5082235;28;20038;-66
2022/08/11 14:08:52;;;;;;;4.38;2.85;;;29.40;39.20;;;;;;5084713;28;20051;-62
2022/08/11 14:14:05;;;;;;;10.98;2.60;;;29.80;38.10;;;;;;5087014;28;20039;-61
2022/08/11 14:16:35;;;;;;;6.40;2.95;;;29.60;38.20;;;;;;5088051;28;20474;-64
2022/08/11 14:19:04;;;;;;;9.77;2.78;;;29.70;38.60;;;;;;5083802;28;20091;-63
2022/08/11 14:24:20;;;;;;;5.78;2.75;;;29.20;37.60;;;;;;5087401;28;20080;-61
2022/08/11 14:26:50;;;;;;;6.18;2.78;;;29.00;39.90;;;;;;5077063;28;20056;-62
2022/08/11 14:29:21;;;;;;;7.05;2.95;;;28.90;38.20;;;;;;5078343;28;20024;-62
2022/08/11 14:32:00;;;;;;;7.70;2.90;;;28.80;38.40;;;;;;5084004;28;20035;-62
2022/08/11 14:34:29;;;;;;;6.47;3.10;;;28.90;39.40;;;;;;5084764;28;20035;-64
2022/08/11 14:37:05;;;;;;;9.60;2.95;;;29.30;38.00;;;;;;5086209;28;20082;-62
2022/08/11 14:39:37;;;;;;;8.85;2.90;;;29.00;38.30;;;;;;5071006;28;20147;-61
2022/08/11 14:47:40;;;;;;;7.75;2.70;;;28.60;38.40;;;;;;5082086;28;21616;-62
2022/08/11 14:50:16;;;;;;;4.93;3.05;;;28.50;38.90;;;;;;5083524;28;20519;-62
2022/08/11 14:52:48;;;;;;;6.95;2.95;;;28.80;39.80;;;;;;5073310;28;20424;-63
2022/08/11 14:58:00;;;;;;;3.88;3.03;;;28.60;38.20;;;;;;5088458;28;20042;-63
2022/08/11 15:00:27;;;;;;;11.05;3.30;;;28.60;39.60;;;;;;5078426;28;20133;-67
2022/08/11 15:03:09;;;;;;;6.85;3.00;;;28.70;40.00;;;;;;5076013;28;20111;-62
2022/08/11 15:05:36;;;;;;;4.38;3.00;;;28.80;39.90;;;;;;5076864;28;20481;-62
2022/08/11 15:08:02;;;;;;;4.95;3.22;;;28.80;40.10;;;;;;5073328;28;20110;-62
2022/08/11 15:10:28;;;;;;;3.30;2.80;;;28.60;39.30;;;;;;5080821;28;20069;-65
2022/08/11 15:12:55;;;;;;;5.32;3.05;;;28.30;39.80;;;;;;5073768;28;20085;-63
2022/08/11 15:18:11;;;;;;;6.40;2.90;;;28.70;42.00;;;;;;5080333;28;20063;-63
2022/08/11 15:37:42;;;;;;;5.22;2.75;;;28.30;39.00;;;;;;5089513;28;20039;-61
2022/08/11 15:45:48;;;;;;;5.45;2.85;;;28.00;39.10;;;;;;5087271;28;20079;-63
2022/08/11 15:48:29;;;;;;;8.15;2.97;;;28.00;39.40;;;;;;5076854;28;20052;-62
2022/08/11 15:50:56;;;;;;;;;;;28.00;39.20;;;;;;5087059;28;20186;-62
2022/08/11 15:53:27;;;;;;;6.05;2.95;;;27.90;39.10;;;;;;5088074;28;19923;-63
2022/08/11 15:55:55;;;;;;;3.67;2.88;;;27.70;39.20;;;;;;5081879;28;20036;-62
2022/08/11 16:04:12;;;;;;;6.88;2.60;;;27.70;39.40;;;;;;5083804;28;20050;-62
2022/08/11 16:06:50;;;;;;;8.05;2.78;;;27.80;40.20;;;;;;5090803;28;20024;-62
2022/08/11 16:09:23;;;;;;;6.35;2.78;;;27.70;39.40;;;;;;5088727;28;20024;-62
2022/08/11 16:11:51;;;;;;;4.57;2.60;;;27.70;39.80;;;;;;5082270;28;20051;-63
2022/08/11 16:17:05;;;;;;;5.97;3.40;;;27.70;40.00;;;;;;5083270;28;20043;-62
2022/08/11 16:19:35;;;;;;;7.70;3.22;;;27.60;40.30;;;;;;5088195;28;20052;-67
2022/08/11 16:22:06;;;;;;;8.15;3.03;;;27.50;40.90;;;;;;5085812;28;20020;-62
2022/08/11 16:24:33;;;;;;;8.55;2.80;;;27.40;40.30;;;;;;5094476;28;20036;-67
2022/08/11 16:27:02;;;;;;;3.83;3.00;;;27.40;40.30;;;;;;5078049;28;20035;-62
2022/08/11 16:29:30;;;;;;;6.50;3.00;;;27.30;40.20;;;;;;5085919;28;20032;-63
2022/08/11 16:40:42;;;;;;;4.53;2.83;;;27.20;40.40;;;;;;5081568;28;20039;-64
2022/08/11 16:48:44;;;;;;;3.83;2.67;;;27.10;39.70;;;;;;5086325;28;20547;-63
2022/08/11 16:51:11;;;;;;;4.55;2.70;;;27.10;39.50;;;;;;5091581;28;20470;-62
2022/08/11 16:53:39;;;;;;;6.32;2.88;;;27.10;39.60;;;;;;5090572;28;20036;-65
2022/08/11 16:56:06;;;;;;;4.25;2.47;;;27.00;39.60;;;;;;5090669;28;20023;-61
2022/08/11 17:01:23;;;;;;;4.53;2.45;;;26.90;40.00;;;;;;5095782;28;20038;-62
2022/08/11 17:18:09;;;;;;;7.43;3.60;;;26.70;41.00;;;;;;5090016;28;20078;-61
2022/08/11 17:20:37;;;;;;;3.42;2.55;;;26.60;41.20;;;;;;5088696;28;20060;-67
2022/08/11 17:25:50;;;;;;;7.03;3.00;;;26.40;41.00;;;;;;5073547;28;20061;-63
2022/08/11 17:28:18;;;;;;;9.05;3.25;;;26.40;41.10;;;;;;5084910;28;20036;-62
2022/08/11 17:36:20;;;;;;;3.60;2.85;;;26.30;42.00;;;;;;5088621;28;20085;-61
2022/08/11 17:38:47;;;;;;;4.13;2.75;;;26.30;41.70;;;;;;5078321;28;20024;-63
2022/08/11 17:49:36;;;;;;;4.15;2.85;;;25.90;43.50;;;;;;5089464;28;20159;-62
2022/08/11 18:00:24;;;;;;;4.22;2.95;;;25.50;44.10;;;;;;5082488;28;20085;-62
2022/08/11 18:05:39;;;;;;;6.90;2.70;;;25.30;43.50;;;;;;5090977;28;20039;-66
